sensor_id;sensor_type;location;lat;lon;timestamp;P1;durP1;ratioP1;P2;durP2;ratioP2
21091;SDS011;10704;42.678;23.288;2023-08-07T00:00:23;1.88;;;1.23;;
21091;SDS011;10704;42.678;23.288;2023-08-07T00:02:49;2.95;;;1.60;;
21091;SDS011;10704;42.678;23.288;2023-08-07T00:05:15;2.60;;;1.63;;
21091;SDS011;10704;42.678;23.288;2023-08-07T00:07:42;3.95;;;1.48;;
21091;SDS011;10704;42.678;23.288;2023-08-07T00:10:08;3.33;;;1.63;;
21091;SDS011;10704;42.678;23.288;2023-08-07T00:12:34;2.22;;;1.50;;
21091;SDS011;10704;42.678;23.288;2023-08-07T00:15:01;2.88;;;1.70;;
21091;SDS011;10704;42.678;23.288;2023-08-07T00:17:30;3.08;;;1.80;;
21091;SDS011;10704;42.678;23.288;2023-08-07T00:19:55;3.60;;;2.13;;
21091;SDS011;10704;42.678;23.288;2023-08-07T00:22:21;2.97;;;1.90;;
21091;SDS011;10704;42.678;23.288;2023-08-07T00:24:47;3.15;;;1.95;;
21091;SDS011;10704;42.678;23.288;2023-08-07T00:27:13;2.80;;;1.95;;
21091;SDS011;10704;42.678;23.288;2023-08-07T00:29:39;5.03;;;2.17;;
21091;SDS011;10704;42.678;23.288;2023-08-07T00:32:05;4.57;;;2.10;;
21091;SDS011;10704;42.678;23.288;2023-08-07T00:34:32;3.63;;;1.50;;
21091;SDS011;10704;42.678;23.288;2023-08-07T00:36:58;3.30;;;2.20;;
21091;SDS011;10704;42.678;23.288;2023-08-07T00:39:24;2.38;;;1.70;;
21091;SDS011;10704;42.678;23.288;2023-08-07T00:41:50;2.78;;;1.95;;
21091;SDS011;10704;42.678;23.288;2023-08-07T00:44:16;3.65;;;1.90;;
21091;SDS011;10704;42.678;23.288;2023-08-07T00:46:42;4.53;;;2.70;;
21091;SDS011;10704;42.678;23.288;2023-08-07T00:49:09;6.40;;;2.55;;
21091;SDS011;10704;42.678;23.288;2023-08-07T00:51:37;7.05;;;3.53;;
21091;SDS011;10704;42.678;23.288;2023-08-07T00:54:04;4.85;;;2.17;;
21091;SDS011;10704;42.678;23.288;2023-08-07T00:56:33;3.17;;;2.10;;
21091;SDS011;10704;42.678;23.288;2023-08-07T00:58:59;3.30;;;2.38;;
21091;SDS011;10704;42.678;23.288;2023-08-07T01:01:26;4.00;;;2.53;;
21091;SDS011;10704;42.678;23.288;2023-08-07T01:03:52;5.38;;;2.83;;
21091;SDS011;10704;42.678;23.288;2023-08-07T01:06:19;4.43;;;2.38;;
21091;SDS011;10704;42.678;23.288;2023-08-07T01:08:45;5.95;;;3.42;;
21091;SDS011;10704;42.678;23.288;2023-08-07T01:16:40;4.47;;;2.65;;
21091;SDS011;10704;42.678;23.288;2023-08-07T01:19:38;3.83;;;2.25;;
21091;SDS011;10704;42.678;23.288;2023-08-07T01:22:16;4.47;;;2.92;;
21091;SDS011;10704;42.678;23.288;2023-08-07T01:24:44;5.50;;;2.67;;
21091;SDS011;10704;42.678;23.288;2023-08-07T01:29:51;4.18;;;2.85;;
21091;SDS011;10704;42.678;23.288;2023-08-07T01:32:47;4.22;;;3.03;;
21091;SDS011;10704;42.678;23.288;2023-08-07T01:35:26;5.28;;;3.05;;
21091;SDS011;10704;42.678;23.288;2023-08-07T01:37:55;4.50;;;3.10;;
21091;SDS011;10704;42.678;23.288;2023-08-07T01:40:24;6.20;;;2.70;;
21091;SDS011;10704;42.678;23.288;2023-08-07T01:42:52;4.60;;;2.95;;
21091;SDS011;10704;42.678;23.288;2023-08-07T01:45:25;6.53;;;3.20;;
21091;SDS011;10704;42.678;23.288;2023-08-07T01:47:52;4.38;;;2.67;;
21091;SDS011;10704;42.678;23.288;2023-08-07T01:50:19;5.32;;;2.80;;
21091;SDS011;10704;42.678;23.288;2023-08-07T01:52:48;4.70;;;3.00;;
21091;SDS011;10704;42.678;23.288;2023-08-07T01:55:15;4.43;;;3.33;;
21091;SDS011;10704;42.678;23.288;2023-08-07T01:57:49;4.57;;;3.00;;
21091;SDS011;10704;42.678;23.288;2023-08-07T02:00:15;3.65;;;2.42;;
21091;SDS011;10704;42.678;23.288;2023-08-07T02:02:41;3.97;;;2.72;;
21091;SDS011;10704;42.678;23.288;2023-08-07T02:05:06;4.72;;;2.92;;
21091;SDS011;10704;42.678;23.288;2023-08-07T02:07:32;10.02;;;2.95;;
21091;SDS011;10704;42.678;23.288;2023-08-07T02:10:01;4.70;;;2.60;;
21091;SDS011;10704;42.678;23.288;2023-08-07T02:12:27;5.65;;;3.22;;
21091;SDS011;10704;42.678;23.288;2023-08-07T02:14:54;3.80;;;2.30;;
21091;SDS011;10704;42.678;23.288;2023-08-07T02:17:21;6.43;;;3.13;;
21091;SDS011;10704;42.678;23.288;2023-08-07T02:19:50;4.78;;;2.80;;
21091;SDS011;10704;42.678;23.288;2023-08-07T02:22:15;5.28;;;3.28;;
21091;SDS011;10704;42.678;23.288;2023-08-07T02:24:41;5.82;;;3.28;;
21091;SDS011;10704;42.678;23.288;2023-08-07T02:27:07;4.82;;;3.30;;
21091;SDS011;10704;42.678;23.288;2023-08-07T02:29:35;3.53;;;2.45;;
21091;SDS011;10704;42.678;23.288;2023-08-07T02:32:04;6.43;;;3.00;;
21091;SDS011;10704;42.678;23.288;2023-08-07T02:34:30;4.35;;;2.60;;
21091;SDS011;10704;42.678;23.288;2023-08-07T02:37:00;4.95;;;3.00;;
21091;SDS011;10704;42.678;23.288;2023-08-07T02:39:26;4.43;;;2.63;;
21091;SDS011;10704;42.678;23.288;2023-08-07T02:41:52;4.05;;;2.97;;
21091;SDS011;10704;42.678;23.288;2023-08-07T02:44:19;3.92;;;2.38;;
21091;SDS011;10704;42.678;23.288;2023-08-07T02:46:45;3.78;;;2.65;;
21091;SDS011;10704;42.678;23.288;2023-08-07T02:49:11;5.68;;;3.25;;
21091;SDS011;10704;42.678;23.288;2023-08-07T02:51:37;3.63;;;2.72;;
21091;SDS011;10704;42.678;23.288;2023-08-07T02:54:03;4.65;;;2.95;;
21091;SDS011;10704;42.678;23.288;2023-08-07T02:56:29;6.47;;;3.88;;
21091;SDS011;10704;42.678;23.288;2023-08-07T02:58:55;5.47;;;3.20;;
21091;SDS011;10704;42.678;23.288;2023-08-07T03:01:23;5.63;;;3.30;;
21091;SDS011;10704;42.678;23.288;2023-08-07T03:03:49;4.63;;;3.28;;
21091;SDS011;10704;42.678;23.288;2023-08-07T03:06:15;4.28;;;2.72;;
21091;SDS011;10704;42.678;23.288;2023-08-07T03:08:41;4.90;;;3.25;;
21091;SDS011;10704;42.678;23.288;2023-08-07T03:11:08;5.80;;;3.15;;
21091;SDS011;10704;42.678;23.288;2023-08-07T03:13:34;5.85;;;3.33;;
21091;SDS011;10704;42.678;23.288;2023-08-07T03:16:00;7.90;;;3.60;;
21091;SDS011;10704;42.678;23.288;2023-08-07T03:18:28;4.95;;;3.65;;
21091;SDS011;10704;42.678;23.288;2023-08-07T03:20:55;7.13;;;3.80;;
21091;SDS011;10704;42.678;23.288;2023-08-07T03:23:22;4.82;;;3.58;;
21091;SDS011;10704;42.678;23.288;2023-08-07T03:25:49;5.75;;;3.05;;
21091;SDS011;10704;42.678;23.288;2023-08-07T03:28:15;5.97;;;3.63;;
21091;SDS011;10704;42.678;23.288;2023-08-07T03:30:42;5.93;;;3.80;;
21091;SDS011;10704;42.678;23.288;2023-08-07T03:33:10;6.35;;;3.58;;
21091;SDS011;10704;42.678;23.288;2023-08-07T03:35:37;6.18;;;4.00;;
21091;SDS011;10704;42.678;23.288;2023-08-07T03:38:03;5.85;;;4.20;;
21091;SDS011;10704;42.678;23.288;2023-08-07T03:40:29;6.45;;;3.72;;
21091;SDS011;10704;42.678;23.288;2023-08-07T03:42:55;5.82;;;3.88;;
21091;SDS011;10704;42.678;23.288;2023-08-07T03:45:21;7.45;;;4.07;;
21091;SDS011;10704;42.678;23.288;2023-08-07T03:47:47;6.05;;;4.00;;
21091;SDS011;10704;42.678;23.288;2023-08-07T03:50:13;5.82;;;3.85;;
21091;SDS011;10704;42.678;23.288;2023-08-07T03:52:39;6.03;;;3.53;;
21091;SDS011;10704;42.678;23.288;2023-08-07T03:55:06;7.85;;;3.95;;
21091;SDS011;10704;42.678;23.288;2023-08-07T03:57:32;6.43;;;3.50;;
21091;SDS011;10704;42.678;23.288;2023-08-07T03:59:58;4.13;;;3.05;;
21091;SDS011;10704;42.678;23.288;2023-08-07T04:02:27;4.78;;;3.47;;
21091;SDS011;10704;42.678;23.288;2023-08-07T04:04:54;4.68;;;3.00;;
21091;SDS011;10704;42.678;23.288;2023-08-07T04:07:20;6.40;;;3.30;;
21091;SDS011;10704;42.678;23.288;2023-08-07T04:09:46;4.88;;;3.47;;
21091;SDS011;10704;42.678;23.288;2023-08-07T04:12:12;5.13;;;3.35;;
21091;SDS011;10704;42.678;23.288;2023-08-07T04:14:38;5.30;;;2.80;;
21091;SDS011;10704;42.678;23.288;2023-08-07T04:17:03;4.65;;;3.17;;
21091;SDS011;10704;42.678;23.288;2023-08-07T04:19:29;4.65;;;3.03;;
21091;SDS011;10704;42.678;23.288;2023-08-07T04:21:55;6.50;;;3.95;;
21091;SDS011;10704;42.678;23.288;2023-08-07T04:24:21;5.97;;;3.40;;
21091;SDS011;10704;42.678;23.288;2023-08-07T04:26:47;4.63;;;3.20;;
21091;SDS011;10704;42.678;23.288;2023-08-07T04:29:13;4.30;;;3.17;;
21091;SDS011;10704;42.678;23.288;2023-08-07T04:31:40;4.60;;;2.92;;
21091;SDS011;10704;42.678;23.288;2023-08-07T04:34:05;4.40;;;3.05;;
21091;SDS011;10704;42.678;23.288;2023-08-07T04:36:31;7.15;;;3.13;;
21091;SDS011;10704;42.678;23.288;2023-08-07T04:38:58;4.20;;;2.90;;
21091;SDS011;10704;42.678;23.288;2023-08-07T04:41:24;5.35;;;3.28;;
21091;SDS011;10704;42.678;23.288;2023-08-07T04:43:49;6.18;;;3.28;;
21091;SDS011;10704;42.678;23.288;2023-08-07T04:46:15;5.20;;;3.83;;
21091;SDS011;10704;42.678;23.288;2023-08-07T04:48:41;5.32;;;3.50;;
21091;SDS011;10704;42.678;23.288;2023-08-07T04:51:07;5.90;;;3.10;;
21091;SDS011;10704;42.678;23.288;2023-08-07T04:53:33;4.65;;;3.30;;
21091;SDS011;10704;42.678;23.288;2023-08-07T04:55:59;5.65;;;4.18;;
21091;SDS011;10704;42.678;23.288;2023-08-07T04:58:25;4.47;;;3.20;;
21091;SDS011;10704;42.678;23.288;2023-08-07T05:00:55;4.80;;;3.30;;
21091;SDS011;10704;42.678;23.288;2023-08-07T05:03:21;5.72;;;2.97;;
21091;SDS011;10704;42.678;23.288;2023-08-07T05:05:47;5.07;;;3.05;;
21091;SDS011;10704;42.678;23.288;2023-08-07T05:08:13;9.25;;;3.58;;
21091;SDS011;10704;42.678;23.288;2023-08-07T05:10:39;8.13;;;4.07;;
21091;SDS011;10704;42.678;23.288;2023-08-07T05:13:05;5.13;;;2.72;;
21091;SDS011;10704;42.678;23.288;2023-08-07T05:15:31;5.65;;;3.20;;
21091;SDS011;10704;42.678;23.288;2023-08-07T05:17:57;6.03;;;2.92;;
21091;SDS011;10704;42.678;23.288;2023-08-07T05:20:23;4.75;;;3.10;;
21091;SDS011;10704;42.678;23.288;2023-08-07T05:22:49;7.35;;;3.47;;
21091;SDS011;10704;42.678;23.288;2023-08-07T05:25:15;4.43;;;2.90;;
21091;SDS011;10704;42.678;23.288;2023-08-07T05:27:42;4.70;;;3.00;;
21091;SDS011;10704;42.678;23.288;2023-08-07T05:30:09;6.18;;;3.00;;
21091;SDS011;10704;42.678;23.288;2023-08-07T05:32:35;5.38;;;3.20;;
21091;SDS011;10704;42.678;23.288;2023-08-07T05:35:04;5.13;;;2.92;;
21091;SDS011;10704;42.678;23.288;2023-08-07T05:37:30;3.88;;;2.70;;
21091;SDS011;10704;42.678;23.288;2023-08-07T05:39:57;5.32;;;3.35;;
21091;SDS011;10704;42.678;23.288;2023-08-07T05:42:23;5.10;;;3.08;;
21091;SDS011;10704;42.678;23.288;2023-08-07T05:44:49;6.47;;;2.72;;
21091;SDS011;10704;42.678;23.288;2023-08-07T05:47:15;6.45;;;3.33;;
21091;SDS011;10704;42.678;23.288;2023-08-07T05:49:41;4.50;;;2.80;;
21091;SDS011;10704;42.678;23.288;2023-08-07T05:52:07;5.50;;;3.08;;
21091;SDS011;10704;42.678;23.288;2023-08-07T05:54:33;5.47;;;2.95;;
21091;SDS011;10704;42.678;23.288;2023-08-07T05:56:59;4.22;;;2.90;;
21091;SDS011;10704;42.678;23.288;2023-08-07T05:59:25;7.25;;;3.00;;
21091;SDS011;10704;42.678;23.288;2023-08-07T06:01:52;5.32;;;2.65;;
21091;SDS011;10704;42.678;23.288;2023-08-07T06:04:18;4.00;;;2.92;;
21091;SDS011;10704;42.678;23.288;2023-08-07T06:06:44;4.50;;;3.10;;
21091;SDS011;10704;42.678;23.288;2023-08-07T06:09:11;6.20;;;3.78;;
21091;SDS011;10704;42.678;23.288;2023-08-07T06:11:37;7.85;;;3.97;;
21091;SDS011;10704;42.678;23.288;2023-08-07T06:14:03;4.72;;;2.90;;
21091;SDS011;10704;42.678;23.288;2023-08-07T06:16:29;4.45;;;2.50;;
21091;SDS011;10704;42.678;23.288;2023-08-07T06:18:55;7.07;;;3.40;;
21091;SDS011;10704;42.678;23.288;2023-08-07T06:21:21;7.75;;;3.67;;
21091;SDS011;10704;42.678;23.288;2023-08-07T06:23:46;6.15;;;3.35;;
21091;SDS011;10704;42.678;23.288;2023-08-07T06:26:12;9.35;;;4.78;;
21091;SDS011;10704;42.678;23.288;2023-08-07T06:28:39;7.55;;;3.88;;
21091;SDS011;10704;42.678;23.288;2023-08-07T06:31:05;6.53;;;3.78;;
21091;SDS011;10704;42.678;23.288;2023-08-07T06:33:32;7.15;;;4.47;;
21091;SDS011;10704;42.678;23.288;2023-08-07T06:35:59;8.60;;;4.85;;
21091;SDS011;10704;42.678;23.288;2023-08-07T06:38:26;6.63;;;3.20;;
21091;SDS011;10704;42.678;23.288;2023-08-07T06:40:52;3.05;;;2.20;;
21091;SDS011;10704;42.678;23.288;2023-08-07T06:43:18;2.75;;;2.10;;
21091;SDS011;10704;42.678;23.288;2023-08-07T06:45:46;3.58;;;2.05;;
21091;SDS011;10704;42.678;23.288;2023-08-07T06:48:14;3.97;;;1.85;;
21091;SDS011;10704;42.678;23.288;2023-08-07T06:50:40;9.60;;;4.88;;
21091;SDS011;10704;42.678;23.288;2023-08-07T06:53:06;1.35;;;0.88;;
21091;SDS011;10704;42.678;23.288;2023-08-07T06:55:32;2.85;;;1.58;;
21091;SDS011;10704;42.678;23.288;2023-08-07T06:57:58;2.55;;;1.40;;
21091;SDS011;10704;42.678;23.288;2023-08-07T07:00:24;5.13;;;2.28;;
21091;SDS011;10704;42.678;23.288;2023-08-07T07:02:50;5.10;;;2.55;;
21091;SDS011;10704;42.678;23.288;2023-08-07T07:05:17;3.33;;;2.00;;
21091;SDS011;10704;42.678;23.288;2023-08-07T07:07:42;4.28;;;1.63;;
21091;SDS011;10704;42.678;23.288;2023-08-07T07:10:08;4.07;;;1.23;;
21091;SDS011;10704;42.678;23.288;2023-08-07T07:12:34;1.80;;;1.27;;
21091;SDS011;10704;42.678;23.288;2023-08-07T07:15:01;3.28;;;1.88;;
21091;SDS011;10704;42.678;23.288;2023-08-07T07:17:27;3.67;;;1.98;;
21091;SDS011;10704;42.678;23.288;2023-08-07T07:19:53;2.42;;;1.70;;
21091;SDS011;10704;42.678;23.288;2023-08-07T07:22:19;3.25;;;1.58;;
21091;SDS011;10704;42.678;23.288;2023-08-07T07:24:45;1.88;;;1.17;;
21091;SDS011;10704;42.678;23.288;2023-08-07T07:27:10;2.45;;;1.60;;
21091;SDS011;10704;42.678;23.288;2023-08-07T07:29:36;4.45;;;1.40;;
21091;SDS011;10704;42.678;23.288;2023-08-07T07:32:02;3.47;;;1.60;;
21091;SDS011;10704;42.678;23.288;2023-08-07T07:34:28;2.13;;;1.50;;
21091;SDS011;10704;42.678;23.288;2023-08-07T07:36:54;3.13;;;1.70;;
21091;SDS011;10704;42.678;23.288;2023-08-07T07:39:20;4.57;;;1.73;;
21091;SDS011;10704;42.678;23.288;2023-08-07T07:41:46;2.80;;;1.30;;
21091;SDS011;10704;42.678;23.288;2023-08-07T07:44:12;2.60;;;1.55;;
21091;SDS011;10704;42.678;23.288;2023-08-07T07:46:38;2.22;;;1.30;;
21091;SDS011;10704;42.678;23.288;2023-08-07T07:49:04;1.83;;;1.15;;
21091;SDS011;10704;42.678;23.288;2023-08-07T07:51:30;2.40;;;1.10;;
21091;SDS011;10704;42.678;23.288;2023-08-07T07:53:57;2.05;;;1.30;;
21091;SDS011;10704;42.678;23.288;2023-08-07T07:56:23;1.80;;;1.23;;
21091;SDS011;10704;42.678;23.288;2023-08-07T07:58:49;2.72;;;1.30;;
21091;SDS011;10704;42.678;23.288;2023-08-07T08:01:15;1.92;;;1.17;;
21091;SDS011;10704;42.678;23.288;2023-08-07T08:03:43;2.00;;;1.50;;
21091;SDS011;10704;42.678;23.288;2023-08-07T08:06:11;5.70;;;1.40;;
21091;SDS011;10704;42.678;23.288;2023-08-07T08:08:37;2.28;;;1.33;;
21091;SDS011;10704;42.678;23.288;2023-08-07T08:11:03;4.53;;;1.30;;
21091;SDS011;10704;42.678;23.288;2023-08-07T08:13:29;3.03;;;1.40;;
21091;SDS011;10704;42.678;23.288;2023-08-07T08:16:02;5.80;;;1.77;;
21091;SDS011;10704;42.678;23.288;2023-08-07T08:18:28;2.22;;;1.20;;
21091;SDS011;10704;42.678;23.288;2023-08-07T08:20:55;2.35;;;1.40;;
21091;SDS011;10704;42.678;23.288;2023-08-07T08:23:21;2.45;;;1.30;;
21091;SDS011;10704;42.678;23.288;2023-08-07T08:25:47;3.35;;;1.33;;
21091;SDS011;10704;42.678;23.288;2023-08-07T08:28:13;3.28;;;1.35;;
21091;SDS011;10704;42.678;23.288;2023-08-07T08:30:39;4.45;;;1.30;;
21091;SDS011;10704;42.678;23.288;2023-08-07T08:33:06;3.58;;;1.65;;
21091;SDS011;10704;42.678;23.288;2023-08-07T08:35:34;11.93;;;1.75;;
21091;SDS011;10704;42.678;23.288;2023-08-07T08:38:01;2.60;;;1.58;;
21091;SDS011;10704;42.678;23.288;2023-08-07T08:40:28;3.90;;;1.58;;
21091;SDS011;10704;42.678;23.288;2023-08-07T08:43:00;2.28;;;1.45;;
21091;SDS011;10704;42.678;23.288;2023-08-07T08:45:26;1.55;;;1.20;;
21091;SDS011;10704;42.678;23.288;2023-08-07T08:47:54;1.95;;;1.20;;
21091;SDS011;10704;42.678;23.288;2023-08-07T08:50:24;2.15;;;1.30;;
21091;SDS011;10704;42.678;23.288;2023-08-07T08:52:51;3.05;;;1.30;;
21091;SDS011;10704;42.678;23.288;2023-08-07T08:55:20;2.08;;;1.33;;
21091;SDS011;10704;42.678;23.288;2023-08-07T08:57:47;2.75;;;1.60;;
21091;SDS011;10704;42.678;23.288;2023-08-07T09:00:15;1.80;;;1.10;;
21091;SDS011;10704;42.678;23.288;2023-08-07T09:02:49;2.33;;;1.33;;
21091;SDS011;10704;42.678;23.288;2023-08-07T09:05:16;1.60;;;0.95;;
21091;SDS011;10704;42.678;23.288;2023-08-07T09:07:43;2.30;;;1.13;;
21091;SDS011;10704;42.678;23.288;2023-08-07T09:10:12;2.20;;;1.20;;
21091;SDS011;10704;42.678;23.288;2023-08-07T09:12:43;2.58;;;1.42;;
21091;SDS011;10704;42.678;23.288;2023-08-07T09:15:33;1.38;;;1.10;;
21091;SDS011;10704;42.678;23.288;2023-08-07T09:18:01;2.55;;;1.15;;
21091;SDS011;10704;42.678;23.288;2023-08-07T09:20:30;1.95;;;1.25;;
21091;SDS011;10704;42.678;23.288;2023-08-07T09:22:56;1.75;;;1.20;;
21091;SDS011;10704;42.678;23.288;2023-08-07T09:25:28;3.22;;;1.45;;
21091;SDS011;10704;42.678;23.288;2023-08-07T09:27:56;3.38;;;1.50;;
21091;SDS011;10704;42.678;23.288;2023-08-07T09:30:25;3.70;;;1.85;;
21091;SDS011;10704;42.678;23.288;2023-08-07T09:32:53;3.55;;;1.63;;
21091;SDS011;10704;42.678;23.288;2023-08-07T09:35:21;3.17;;;1.75;;
21091;SDS011;10704;42.678;23.288;2023-08-07T09:37:48;8.70;;;5.10;;
21091;SDS011;10704;42.678;23.288;2023-08-07T09:40:14;6.78;;;2.95;;
21091;SDS011;10704;42.678;23.288;2023-08-07T09:42:41;4.10;;;1.90;;
21091;SDS011;10704;42.678;23.288;2023-08-07T09:45:23;2.58;;;1.60;;
21091;SDS011;10704;42.678;23.288;2023-08-07T09:47:57;3.35;;;1.42;;
21091;SDS011;10704;42.678;23.288;2023-08-07T09:50:23;2.47;;;1.40;;
21091;SDS011;10704;42.678;23.288;2023-08-07T09:52:49;2.15;;;1.23;;
21091;SDS011;10704;42.678;23.288;2023-08-07T09:55:15;3.00;;;1.75;;
21091;SDS011;10704;42.678;23.288;2023-08-07T09:57:44;3.28;;;1.50;;
21091;SDS011;10704;42.678;23.288;2023-08-07T10:00:11;5.05;;;1.67;;
21091;SDS011;10704;42.678;23.288;2023-08-07T10:02:41;2.95;;;1.20;;
21091;SDS011;10704;42.678;23.288;2023-08-07T10:05:09;1.95;;;1.40;;
21091;SDS011;10704;42.678;23.288;2023-08-07T10:07:39;2.47;;;1.30;;
21091;SDS011;10704;42.678;23.288;2023-08-07T10:10:09;3.90;;;1.23;;
21091;SDS011;10704;42.678;23.288;2023-08-07T10:12:36;2.83;;;2.00;;
21091;SDS011;10704;42.678;23.288;2023-08-07T10:15:03;4.35;;;1.20;;
21091;SDS011;10704;42.678;23.288;2023-08-07T10:17:30;2.95;;;1.20;;
21091;SDS011;10704;42.678;23.288;2023-08-07T10:19:58;1.67;;;1.17;;
21091;SDS011;10704;42.678;23.288;2023-08-07T10:22:24;2.90;;;1.73;;
21091;SDS011;10704;42.678;23.288;2023-08-07T10:24:52;2.35;;;1.40;;
21091;SDS011;10704;42.678;23.288;2023-08-07T10:27:21;4.97;;;1.70;;
21091;SDS011;10704;42.678;23.288;2023-08-07T10:29:51;2.67;;;1.83;;
21091;SDS011;10704;42.678;23.288;2023-08-07T10:32:20;1.92;;;1.33;;
21091;SDS011;10704;42.678;23.288;2023-08-07T10:34:47;1.70;;;1.35;;
21091;SDS011;10704;42.678;23.288;2023-08-07T10:40:05;3.28;;;1.20;;
21091;SDS011;10704;42.678;23.288;2023-08-07T10:45:24;2.05;;;1.33;;
21091;SDS011;10704;42.678;23.288;2023-08-07T10:50:33;2.42;;;1.33;;
21091;SDS011;10704;42.678;23.288;2023-08-07T10:53:01;4.15;;;1.60;;
21091;SDS011;10704;42.678;23.288;2023-08-07T10:55:31;2.40;;;1.67;;
21091;SDS011;10704;42.678;23.288;2023-08-07T10:58:26;2.05;;;1.30;;
21091;SDS011;10704;42.678;23.288;2023-08-07T11:03:44;3.45;;;1.23;;
21091;SDS011;10704;42.678;23.288;2023-08-07T11:06:13;3.35;;;1.67;;
21091;SDS011;10704;42.678;23.288;2023-08-07T11:08:39;4.68;;;2.25;;
21091;SDS011;10704;42.678;23.288;2023-08-07T11:11:05;2.35;;;1.40;;
21091;SDS011;10704;42.678;23.288;2023-08-07T11:13:35;3.15;;;1.70;;
21091;SDS011;10704;42.678;23.288;2023-08-07T11:16:04;3.50;;;2.20;;
21091;SDS011;10704;42.678;23.288;2023-08-07T11:18:30;2.13;;;1.40;;
21091;SDS011;10704;42.678;23.288;2023-08-07T11:20:57;2.92;;;1.80;;
21091;SDS011;10704;42.678;23.288;2023-08-07T11:23:24;3.92;;;1.65;;
21091;SDS011;10704;42.678;23.288;2023-08-07T11:25:54;2.67;;;1.50;;
21091;SDS011;10704;42.678;23.288;2023-08-07T11:28:21;1.27;;;1.00;;
21091;SDS011;10704;42.678;23.288;2023-08-07T11:30:51;1.85;;;1.10;;
21091;SDS011;10704;42.678;23.288;2023-08-07T11:33:18;2.45;;;1.20;;
21091;SDS011;10704;42.678;23.288;2023-08-07T11:35:45;3.10;;;1.35;;
21091;SDS011;10704;42.678;23.288;2023-08-07T11:38:11;3.50;;;1.88;;
21091;SDS011;10704;42.678;23.288;2023-08-07T11:40:38;4.78;;;2.83;;
21091;SDS011;10704;42.678;23.288;2023-08-07T11:43:04;5.18;;;3.17;;
21091;SDS011;10704;42.678;23.288;2023-08-07T11:45:30;4.63;;;2.78;;
21091;SDS011;10704;42.678;23.288;2023-08-07T11:47:56;2.67;;;1.77;;
21091;SDS011;10704;42.678;23.288;2023-08-07T11:50:23;4.28;;;2.35;;
21091;SDS011;10704;42.678;23.288;2023-08-07T11:52:49;4.15;;;1.65;;
21091;SDS011;10704;42.678;23.288;2023-08-07T11:55:15;2.72;;;1.58;;
21091;SDS011;10704;42.678;23.288;2023-08-07T11:57:46;2.88;;;1.63;;
21091;SDS011;10704;42.678;23.288;2023-08-07T12:00:12;2.40;;;1.40;;
21091;SDS011;10704;42.678;23.288;2023-08-07T12:02:45;3.97;;;1.75;;
21091;SDS011;10704;42.678;23.288;2023-08-07T12:05:11;1.95;;;1.50;;
21091;SDS011;10704;42.678;23.288;2023-08-07T12:07:38;2.88;;;1.38;;
21091;SDS011;10704;42.678;23.288;2023-08-07T12:10:06;3.13;;;1.42;;
21091;SDS011;10704;42.678;23.288;2023-08-07T12:12:34;2.75;;;1.42;;
21091;SDS011;10704;42.678;23.288;2023-08-07T12:15:01;3.33;;;1.65;;
21091;SDS011;10704;42.678;23.288;2023-08-07T12:17:31;4.22;;;1.73;;
21091;SDS011;10704;42.678;23.288;2023-08-07T12:19:57;3.60;;;2.25;;
21091;SDS011;10704;42.678;23.288;2023-08-07T12:22:24;3.28;;;1.83;;
21091;SDS011;10704;42.678;23.288;2023-08-07T12:24:53;2.97;;;1.70;;
21091;SDS011;10704;42.678;23.288;2023-08-07T12:27:19;4.45;;;2.20;;
21091;SDS011;10704;42.678;23.288;2023-08-07T12:29:45;3.55;;;1.70;;
21091;SDS011;10704;42.678;23.288;2023-08-07T12:32:11;3.85;;;1.90;;
21091;SDS011;10704;42.678;23.288;2023-08-07T12:34:37;4.80;;;1.75;;
21091;SDS011;10704;42.678;23.288;2023-08-07T12:37:04;3.28;;;2.13;;
21091;SDS011;10704;42.678;23.288;2023-08-07T12:39:30;4.03;;;2.38;;
21091;SDS011;10704;42.678;23.288;2023-08-07T12:41:56;4.72;;;2.65;;
21091;SDS011;10704;42.678;23.288;2023-08-07T12:44:23;2.95;;;1.75;;
21091;SDS011;10704;42.678;23.288;2023-08-07T12:46:49;5.20;;;1.75;;
21091;SDS011;10704;42.678;23.288;2023-08-07T12:49:15;2.58;;;1.65;;
21091;SDS011;10704;42.678;23.288;2023-08-07T12:51:44;2.15;;;1.67;;
21091;SDS011;10704;42.678;23.288;2023-08-07T12:54:10;2.83;;;1.98;;
21091;SDS011;10704;42.678;23.288;2023-08-07T12:56:35;3.72;;;2.03;;
21091;SDS011;10704;42.678;23.288;2023-08-07T12:59:01;3.08;;;1.70;;
21091;SDS011;10704;42.678;23.288;2023-08-07T13:01:27;10.57;;;2.95;;
21091;SDS011;10704;42.678;23.288;2023-08-07T13:03:53;6.10;;;2.00;;
21091;SDS011;10704;42.678;23.288;2023-08-07T13:06:19;3.58;;;1.80;;
21091;SDS011;10704;42.678;23.288;2023-08-07T13:08:46;2.45;;;1.70;;
21091;SDS011;10704;42.678;23.288;2023-08-07T13:11:11;4.47;;;2.03;;
21091;SDS011;10704;42.678;23.288;2023-08-07T13:13:37;8.75;;;2.17;;
21091;SDS011;10704;42.678;23.288;2023-08-07T13:16:03;4.07;;;2.13;;
21091;SDS011;10704;42.678;23.288;2023-08-07T13:18:29;4.97;;;2.50;;
21091;SDS011;10704;42.678;23.288;2023-08-07T13:20:55;3.55;;;1.65;;
21091;SDS011;10704;42.678;23.288;2023-08-07T13:23:21;5.53;;;2.25;;
21091;SDS011;10704;42.678;23.288;2023-08-07T13:25:47;2.90;;;1.80;;
21091;SDS011;10704;42.678;23.288;2023-08-07T13:28:13;3.95;;;1.50;;
21091;SDS011;10704;42.678;23.288;2023-08-07T13:30:39;3.15;;;1.85;;
21091;SDS011;10704;42.678;23.288;2023-08-07T13:33:06;4.60;;;1.42;;
21091;SDS011;10704;42.678;23.288;2023-08-07T13:35:32;3.25;;;1.73;;
21091;SDS011;10704;42.678;23.288;2023-08-07T13:37:58;4.65;;;2.55;;
21091;SDS011;10704;42.678;23.288;2023-08-07T13:40:24;2.50;;;1.65;;
21091;SDS011;10704;42.678;23.288;2023-08-07T13:42:50;4.93;;;1.60;;
21091;SDS011;10704;42.678;23.288;2023-08-07T13:45:16;2.92;;;1.83;;
21091;SDS011;10704;42.678;23.288;2023-08-07T13:47:42;3.15;;;1.85;;
21091;SDS011;10704;42.678;23.288;2023-08-07T13:50:08;6.15;;;1.75;;
21091;SDS011;10704;42.678;23.288;2023-08-07T13:52:37;4.93;;;1.98;;
21091;SDS011;10704;42.678;23.288;2023-08-07T13:55:03;3.53;;;2.00;;
21091;SDS011;10704;42.678;23.288;2023-08-07T13:57:30;7.90;;;3.28;;
21091;SDS011;10704;42.678;23.288;2023-08-07T13:59:55;3.90;;;1.95;;
21091;SDS011;10704;42.678;23.288;2023-08-07T14:02:21;4.78;;;2.20;;
21091;SDS011;10704;42.678;23.288;2023-08-07T14:04:48;2.33;;;1.60;;
21091;SDS011;10704;42.678;23.288;2023-08-07T14:07:14;4.63;;;1.98;;
21091;SDS011;10704;42.678;23.288;2023-08-07T14:09:40;4.15;;;1.63;;
21091;SDS011;10704;42.678;23.288;2023-08-07T14:12:06;6.05;;;1.95;;
21091;SDS011;10704;42.678;23.288;2023-08-07T14:14:32;4.72;;;2.03;;
21091;SDS011;10704;42.678;23.288;2023-08-07T14:16:58;3.63;;;2.20;;
21091;SDS011;10704;42.678;23.288;2023-08-07T14:19:26;3.17;;;1.77;;
21091;SDS011;10704;42.678;23.288;2023-08-07T14:21:52;2.58;;;1.65;;
21091;SDS011;10704;42.678;23.288;2023-08-07T14:24:18;2.88;;;2.13;;
21091;SDS011;10704;42.678;23.288;2023-08-07T14:26:44;3.05;;;1.80;;
21091;SDS011;10704;42.678;23.288;2023-08-07T14:29:10;5.22;;;2.05;;
21091;SDS011;10704;42.678;23.288;2023-08-07T14:31:38;3.13;;;1.70;;
21091;SDS011;10704;42.678;23.288;2023-08-07T14:34:05;3.78;;;1.88;;
21091;SDS011;10704;42.678;23.288;2023-08-07T14:36:31;7.63;;;2.70;;
21091;SDS011;10704;42.678;23.288;2023-08-07T14:38:56;4.00;;;2.33;;
21091;SDS011;10704;42.678;23.288;2023-08-07T14:41:22;3.33;;;1.90;;
21091;SDS011;10704;42.678;23.288;2023-08-07T14:43:48;9.38;;;2.70;;
21091;SDS011;10704;42.678;23.288;2023-08-07T14:46:15;7.78;;;2.20;;
21091;SDS011;10704;42.678;23.288;2023-08-07T14:48:43;3.35;;;2.10;;
21091;SDS011;10704;42.678;23.288;2023-08-07T14:51:09;3.28;;;1.88;;